DW5310 Weather Reports


time (UTC)temp
C
wind
direction
speed
KPH
gust
KPH
rain 1hr
cm
rain 24hr
cm
rain mn
cm
humidity
%
barometer
mb
20200531074005 10 202 1.6 3.2 0.00 0.74 0.00 98 1014.5
20200531073504 10 202 0.0 1.6 0.00 0.74 0.00 98 1014.5
20200531073004 10 180 1.6 3.2 0.00 0.74 0.00 98 1014.5
20200531072504 10 209 1.6 4.8 0.00 0.74 0.00 98 1014.5
20200531072005 10 180 1.6 4.8 0.00 0.74 0.00 98 1014.5
20200531071504 10 202 0.0 4.8 0.00 0.74 0.00 98 1014.5
20200531071004 10 180 1.6 4.8 0.00 0.74 0.00 98 1013.5
20200531070504 10 202 3.2 3.2 0.00 0.74 0.00 98 1013.5
20200531070004 10 202 0.0 3.2 0.00 0.74 0.00 98 1013.5
20200531065504 10 202 3.2 4.8 0.00 0.74 0.74 97 1014.5
20200531065005 10 202 3.2 11.3 0.00 0.74 0.74 97 1014.5
20200531064504 10 184 8.0 12.9 0.00 0.74 0.74 97 1014.5
20200531064005 10 198 4.8 11.3 0.00 0.74 0.74 96 1014.5
20200531063504 10 202 3.2 9.7 0.00 0.74 0.74 97 1014.5
20200531063004 10 194 6.4 12.9 0.00 0.74 0.74 96 1014.5
20200531062504 10 187 4.8 9.7 0.00 0.74 0.74 96 1014.5
20200531062005 10 199 4.8 8.0 0.00 0.74 0.74 96 1014.5
20200531061504 10 192 4.8 9.7 0.00 0.74 0.74 96 1014.5
20200531061004 10 180 3.2 9.7 0.00 0.74 0.74 96 1014.5
20200531060504 10 182 3.2 8.0 0.00 0.74 0.74 96 1014.5
20200531060004 10 202 1.6 8.0 0.00 0.74 0.74 96 1014.5
20200531055504 10 181 4.8 9.7 0.00 0.74 0.74 96 1014.5
20200531055005 10 182 3.2 8.0 0.00 0.74 0.74 96 1014.5
20200531054504 10 180 3.2 8.0 0.00 0.74 0.74 96 1014.5
20200531054004 10 202 6.4 9.7 0.00 0.74 0.74 95 1014.5
20200531053504 10 197 4.8 9.7 0.00 0.74 0.74 95 1014.5
20200531053004 10 197 4.8 9.7 0.00 0.74 0.74 94 1014.5
20200531052504 10 180 4.8 9.7 0.00 0.74 0.74 94 1014.5
20200531052005 10 202 1.6 3.2 0.00 0.74 0.74 95 1014.5
20200531051505 10 180 1.6 3.2 0.00 0.74 0.74 95 1014.5
20200531051005 10 202 1.6 3.2 0.00 0.74 0.74 95 1014.5
20200531050504 10 202 1.6 4.8 0.00 0.74 0.74 95 1014.5
20200531050004 10 202 1.6 3.2 0.00 0.74 0.74 95 1014.5
20200531045504 10 202 1.6 4.8 0.00 0.74 0.74 95 1014.5
20200531045005 10 202 1.6 4.8 0.00 0.74 0.74 95 1014.5
20200531044504 10 202 1.6 11.3 0.00 0.74 0.74 95 1014.5
20200531044005 10 180 1.6 3.2 0.00 0.74 0.74 95 1014.5
20200531043504 10 202 3.2 8.0 0.00 0.74 0.74 95 1014.5
20200531043005 10 202 1.6 4.8 0.00 0.74 0.74 95 1014.5
20200531042504 10 202 3.2 4.8 0.00 0.74 0.74 95 1014.5
20200531042005 10 193 3.2 8.0 0.00 0.74 0.74 95 1014.5
20200531041504 10 202 1.6 4.8 0.00 0.74 0.74 95 1014.5
20200531041004 10 202 1.6 3.2 0.00 0.74 0.74 95 1014.5
20200531040505 10 189 4.8 12.9 0.00 0.74 0.74 94 1014.5
20200531040004 10 180 4.8 9.7 0.00 0.74 0.74 94 1014.5
20200531035504 11 202 1.6 8.0 0.00 0.74 0.74 95 1014.5
20200531035004 11 193 1.6 4.8 0.00 0.74 0.74 95 1014.5
20200531034504 11 202 1.6 3.2 0.00 0.74 0.74 94 1014.5
20200531034005 11 197 3.2 8.0 0.00 0.74 0.74 94 1014.5
20200531033505 11 183 3.2 8.0 0.00 0.74 0.74 94 1014.5
20200531033004 11 201 3.2 4.8 0.00 0.74 0.74 94 1014.5
20200531032504 11 202 4.8 9.7 0.00 0.74 0.74 94 1014.5
20200531032004 11 194 1.6 8.0 0.00 0.74 0.74 94 1014.5
20200531031504 11 180 3.2 9.7 0.00 0.74 0.74 94 1014.5
20200531031005 11 187 3.2 11.3 0.00 0.74 0.74 94 1014.5
20200531030504 11 158 3.2 8.0 0.00 0.74 0.74 95 1014.5
20200531030005 11 248 1.6 3.2 0.00 0.74 0.74 95 1014.5
20200531025504 11 202 1.6 4.8 0.00 0.74 0.74 94 1014.5
20200531025004 11 202 4.8 8.0 0.00 0.74 0.74 94 1014.5
20200531024504 11 202 4.8 9.7 0.00 0.74 0.74 93 1014.5
20200531024005 11 190 3.2 9.7 0.00 0.74 0.74 94 1014.5
20200531023504 11 180 3.2 4.8 0.00 0.74 0.74 94 1014.5
20200531023004 11 198 3.2 8.0 0.00 0.74 0.74 93 1014.5
20200531022504 11 202 1.6 3.2 0.00 0.74 0.74 94 1013.5
20200531022004 11 194 4.8 9.7 0.00 0.74 0.74 93 1013.5
20200531021504 11 202 3.2 11.3 0.00 0.74 0.74 93 1013.5
20200531021004 11 181 3.2 9.7 0.00 0.74 0.74 93 1013.5
20200531020504 11 180 0.0 8.0 0.00 0.74 0.74 93 1013.5
20200531020004 11 193 0.0 9.7 0.00 0.74 0.74 93 1013.5
20200531015503 11 180 3.2 9.7 0.00 0.74 0.74 93 1013.5
20200531015005 11 195 3.2 9.7 0.00 0.74 0.74 92 1013.5
20200531014504 11 191 4.8 9.7 0.00 0.74 0.74 91 1013.5
20200531014005 11 180 4.8 8.0 0.00 0.74 0.74 91 1013.5
20200531013504 11 180 4.8 8.0 0.00 0.74 0.74 90 1013.5
20200531013004 11 180 1.6 3.2 0.00 0.74 0.74 91 1013.5
20200531012504 11 180 3.2 4.8 0.00 0.74 0.74 90 1012.5
20200531012005 11 191 4.8 8.0 0.00 0.74 0.74 89 1012.5
20200531011504 11 180 4.8 8.0 0.00 0.74 0.74 88 1012.5
20200531011004 11 22 0.0 0.0 0.00 0.74 0.74 92 1012.5
20200531010504 11 22 0.0 0.0 0.00 0.74 0.74 92 1012.5
20200531010004 11 22 0.0 0.0 0.00 0.74 0.74 92 1012.5
20200531005504 11 22 1.6 1.6 0.00 0.74 0.74 92 1013.5
20200531005004 11 22 0.0 1.6 0.00 0.74 0.74 92 1013.5
20200531004504 11 22 0.0 1.6 0.00 0.74 0.74 92 1013.5
20200531004004 11 22 0.0 1.6 0.00 0.74 0.74 92 1012.5
20200531003504 11 22 1.6 1.6 0.00 0.74 0.74 92 1012.5
20200531003004 11 22 1.6 1.6 0.00 0.74 0.74 91 1012.5
20200531002503 11 22 1.6 3.2 0.00 0.74 0.74 91 1012.5
20200531002005 11 355 1.6 1.6 0.00 0.74 0.74 92 1012.5
20200531001504 11 287 1.6 3.2 0.10 0.74 0.74 92 1012.5
20200531001004 11 202 0.0 1.6 0.10 0.74 0.74 91 1013.5
20200531000504 11 202 0.0 1.6 0.10 0.74 0.74 91 1013.5
20200531000003 11 202 0.0 3.2 0.20 0.74 0.74 90 1013.5
20200530235504 11 202 0.0 1.6 0.33 0.74 0.74 91 1013.5
20200530235004 11 202 1.6 1.6 0.33 0.74 0.74 91 1013.5
20200530234504 11 180 0.0 0.0 0.43 0.74 0.74 91 1013.5
20200530234004 11 180 0.0 3.2 0.43 0.74 0.74 90 1013.5
20200530233504 11 180 0.0 0.0 0.53 0.74 0.74 90 1013.5
20200530233004 10 180 1.6 3.2 0.53 0.74 0.74 88 1013.5
20200530232504 10 102 3.2 3.2 0.53 0.74 0.74 88 1011.5
20200530232004 10 191 3.2 8.0 0.64 0.74 0.74 89 1011.5
20200530231504 10 324 6.4 12.9 0.53 0.64 0.64 94 1011.5
20200530231004 11 325 4.8 9.7 0.53 0.64 0.64 94 1013.5
20200530230504 11 326 4.8 11.3 0.53 0.64 0.64 93 1013.5
20200530230004 11 341 3.2 11.3 0.43 0.53 0.53 93 1013.5
20200530225504 11 295 3.2 4.8 0.33 0.43 0.43 92 1014.5
20200530225005 11 67 3.2 9.7 0.33 0.43 0.43 91 1014.5
20200530224505 11 157 4.8 14.5 0.20 0.33 0.33 90 1014.5
20200530224005 12 194 8.0 16.1 0.20 0.33 0.33 89 1013.5
20200530223504 12 194 8.0 20.9 0.13 0.23 0.23 88 1013.5
20200530223004 12 181 9.7 19.3 0.13 0.23 0.23 85 1013.5
20200530222504 12 198 4.8 12.9 0.13 0.23 0.23 83 1013.5
20200530222005 12 174 8.0 12.9 0.00 0.10 0.10 82 1013.5
20200530221504 12 196 11.3 16.1 0.00 0.10 0.10 82 1013.5
20200530221005 12 196 6.4 9.7 0.00 0.10 0.10 75 1011.5
20200530220504 13 202 3.2 9.7 0.00 0.10 0.10 75 1011.5
20200530220004 13 183 4.8 12.9 0.00 0.10 0.10 74 1011.5
20200530215504 13 179 4.8 11.3 0.00 0.10 0.10 72 1012.5
20200530215005 13 184 4.8 12.9 0.00 0.10 0.10 72 1012.5
20200530214504 13 184 8.0 14.5 0.00 0.10 0.10 72 1012.5
20200530214004 13 185 4.8 11.3 0.00 0.10 0.10 71 1010.5
20200530213504 14 202 1.6 3.2 0.00 0.10 0.10 71 1010.5
20200530213004 14 202 1.6 8.0 0.00 0.10 0.10 69 1010.5
20200530212504 14 206 1.6 8.0 0.00 0.10 0.10 66 1010.5
20200530212005 15 211 1.6 3.2 0.00 0.10 0.10 63 1010.5
20200530211503 15 187 3.2 4.8 0.00 0.10 0.10 62 1010.5
20200530211004 15 251 1.6 3.2 0.00 0.10 0.10 62 1010.5
20200530210504 15 208 3.2 8.0 0.00 0.10 0.10 61 1010.5
20200530210003 15 202 3.2 4.8 0.00 0.10 0.10 61 1010.5
20200530205504 15 189 4.8 19.3 0.00 0.10 0.10 61 1010.5
20200530205004 15 185 3.2 19.3 0.00 0.10 0.10 62 1010.5
20200530204504 16 189 1.6 4.8 0.00 0.10 0.10 63 1010.5
20200530204005 15 202 3.2 9.7 0.00 0.10 0.10 62 1010.5
20200530203504 16 199 3.2 8.0 0.00 0.10 0.10 63 1010.5
20200530203005 15 180 1.6 4.8 0.00 0.10 0.10 63 1010.5
20200530202504 15 289 3.2 9.7 0.00 0.10 0.10 63 1010.5
20200530202004 15 225 3.2 9.7 0.00 0.10 0.10 63 1010.5
20200530201504 15 202 0.0 4.8 0.00 0.10 0.10 64 1010.5
20200530201004 16 330 1.6 4.8 0.00 0.10 0.10 64 1010.5
20200530200504 16 182 3.2 4.8 0.00 0.10 0.10 63 1010.5
20200530200004 16 180 1.6 3.2 0.00 0.10 0.10 62 1010.5
20200530195504 16 185 1.6 4.8 0.00 0.10 0.10 61 1010.5
20200530195004 16 180 4.8 12.9 0.00 0.10 0.10 61 1010.5
20200530194504 16 180 11.3 16.1 0.00 0.10 0.10 60 1010.5
20200530194004 16 195 3.2 9.7 0.00 0.10 0.10 63 1009.5
20200530193504 16 261 0.0 3.2 0.00 0.10 0.10 64 1009.5
20200530193005 16 321 4.8 9.7 0.00 0.10 0.10 64 1009.5
20200530192504 16 228 3.2 9.7 0.00 0.10 0.10 64 1010.5
20200530192004 16 183 9.7 16.1 0.00 0.10 0.10 64 1010.5
20200530191503 16 187 3.2 12.9 0.00 0.10 0.10 68 1010.5
20200530191005 16 185 4.8 14.5 0.00 0.10 0.10 68 1009.5
20200530190504 15 213 4.8 11.3 0.00 0.10 0.10 69 1009.5
20200530190004 15 201 3.2 8.0 0.00 0.10 0.10 68 1009.5
20200530185503 15 255 1.6 3.2 0.00 0.10 0.10 70 1010.5
20200530185005 15 202 1.6 4.8 0.00 0.10 0.10 70 1010.5
20200530184505 15 212 1.6 4.8 0.00 0.10 0.10 70 1010.5
20200530184007 15 189 3.2 8.0 0.00 0.10 0.10 69 1009.5
20200530183506 15 204 8.0 12.9 0.00 0.10 0.10 70 1009.5
20200530183007 15 178 8.0 14.5 0.00 0.10 0.10 69 1009.5
20200530182505 15 339 6.4 12.9 0.00 0.10 0.10 69 1009.5
20200530182006 14 133 3.2 8.0 0.00 0.10 0.10 71 1009.5
20200530181506 14 202 1.6 4.8 0.00 0.10 0.10 72 1009.5
20200530181006 13 48 1.6 4.8 0.00 0.10 0.10 73 1008.5
20200530180506 13 42 3.2 4.8 0.00 0.10 0.10 74 1008.5
20200530180006 13 170 3.2 8.0 0.00 0.10 0.10 74 1008.5
20200530175505 13 12 1.6 4.8 0.00 0.10 0.10 75 1009.5
20200530175006 13 318 1.6 3.2 0.00 0.10 0.10 75 1009.5
20200530174505 13 304 1.6 3.2 0.00 0.10 0.10 75 1009.5
20200530174006 13 255 3.2 9.7 0.00 0.10 0.10 76 1009.5
20200530173505 13 285 3.2 4.8 0.00 0.10 0.10 75 1009.5
20200530173006 13 315 1.6 3.2 0.00 0.10 0.10 76 1009.5
20200530172505 12 323 3.2 8.0 0.00 0.10 0.10 76 1008.5
20200530172006 13 149 1.6 8.0 0.00 0.10 0.10 74 1008.5
20200530171506 12 338 3.2 12.9 0.00 0.10 0.10 77 1008.5
20200530171006 13 318 3.2 4.8 0.00 0.10 0.10 75 1007.5
20200530170506 13 22 1.6 4.8 0.00 0.10 0.10 77 1007.5
20200530170005 13 344 3.2 4.8 0.00 0.10 0.10 76 1007.5
20200530165506 13 60 3.2 4.8 0.00 0.10 0.10 77 1007.5
20200530165006 13 4 1.6 8.0 0.00 0.10 0.10 78 1007.5
20200530164505 13 335 4.8 8.0 0.00 0.10 0.10 77 1007.5
20200530164006 13 339 3.2 4.8 0.00 0.10 0.10 77 1008.5
20200530163506 13 333 3.2 8.0 0.00 0.10 0.10 77 1008.5
20200530163006 13 302 3.2 4.8 0.00 0.10 0.10 78 1008.5
20200530162505 13 248 3.2 8.0 0.00 0.10 0.10 77 1008.5
20200530162006 13 339 3.2 8.0 0.00 0.10 0.10 79 1008.5
20200530161506 13 347 4.8 9.7 0.00 0.10 0.10 79 1008.5
20200530161005 12 2 3.2 8.0 0.00 0.10 0.10 80 1008.5
20200530160506 12 327 3.2 4.8 0.00 0.10 0.10 81 1008.5
20200530160005 12 22 4.8 9.7 0.00 0.10 0.10 82 1008.5
20200530155505 12 0 1.6 4.8 0.00 0.10 0.10 82 1009.5
20200530155006 12 20 3.2 3.2 0.00 0.10 0.10 83 1009.5
20200530154505 12 150 3.2 3.2 0.00 0.10 0.10 81 1009.5
20200530154006 11 329 0.0 3.2 0.00 0.10 0.10 84 1009.5
20200530153505 11 180 0.0 3.2 0.00 0.10 0.10 82 1009.5
20200530153006 11 202 1.6 3.2 0.00 0.10 0.10 83 1009.5
20200530152506 11 336 0.0 3.2 0.00 0.10 0.10 84 1009.5
20200530152006 11 22 1.6 3.2 0.00 0.10 0.10 83 1009.5
20200530151505 11 12 1.6 8.0 0.00 0.10 0.10 82 1009.5
20200530151006 11 63 1.6 3.2 0.00 0.10 0.10 84 1009.5
20200530150505 11 22 1.6 3.2 0.00 0.10 0.10 85 1009.5
20200530150006 11 22 1.6 3.2 0.00 0.10 0.10 85 1009.5
20200530145505 11 0 0.0 1.6 0.00 0.10 0.10 85 1009.5
20200530145006 11 341 1.6 3.2 0.00 0.10 0.10 84 1009.5
20200530144506 11 71 3.2 4.8 0.00 0.10 0.10 82 1009.5
20200530144006 11 51 3.2 4.8 0.00 0.10 0.10 84 1009.5
20200530143506 11 72 1.6 8.0 0.00 0.10 0.10 84 1009.5
20200530143006 11 108 3.2 4.8 0.00 0.10 0.10 83 1009.5
20200530142505 10 22 1.6 3.2 0.10 0.10 0.10 85 1009.5
20200530142006 10 68 1.6 3.2 0.10 0.10 0.10 84 1009.5
20200530141505 10 30 1.6 4.8 0.10 0.10 0.10 84 1009.5
20200530141006 10 103 4.8 9.7 0.10 0.10 0.10 82 1007.5
20200530140506 10 137 6.4 9.7 0.10 0.10 0.10 77 1007.5
20200530140005 10 22 3.2 4.8 0.10 0.10 0.10 85 1007.5
20200530135506 10 0 3.2 4.8 0.10 0.10 0.10 85 1010.5
20200530135006 10 0 3.2 4.8 0.10 0.10 0.10 84 1010.5
20200530134506 10 0 4.8 4.8 0.10 0.10 0.10 84 1010.5
20200530134006 11 135 1.6 1.6 0.10 0.10 0.10 80 1010.5
20200530133505 11 171 0.0 4.8 0.10 0.10 0.10 78 1010.5
20200530133006 11 180 3.2 8.0 0.10 0.10 0.10 74 1010.5
20200530132505 11 315 3.2 3.2 0.00 0.00 0.00 82 1010.5
20200530132006 11 329 0.0 1.6 0.00 0.00 0.00 75 1010.5
20200530131505 11 336 1.6 3.2 0.00 0.00 0.00 73 1010.5
20200530131006 12 258 0.0 1.6 0.00 0.00 0.00 69 1010.5
20200530130505 12 203 4.8 12.9 0.00 0.00 0.00 69 1010.5
20200530130005 11 176 8.0 12.9 0.00 0.00 0.00 68 1010.5
20200530125506 11 186 3.2 8.0 0.00 0.00 0.00 67 1009.5
20200530125006 11 333 0.0 0.0 0.00 0.00 0.00 67 1009.5
20200530124505 11 338 1.6 1.6 0.00 0.00 0.00 67 1009.5
20200530124006 11 338 0.0 1.6 0.00 0.00 0.00 67 1009.5
20200530123505 11 338 0.0 3.2 0.00 0.00 0.00 67 1009.5
20200530123006 11 338 1.6 3.2 0.00 0.00 0.00 68 1009.5
20200530122505 11 45 1.6 3.2 0.00 0.00 0.00 66 1009.5
20200530122006 11 45 1.6 1.6 0.00 0.00 0.00 65 1009.5
20200530121506 11 45 0.0 0.0 0.00 0.00 0.00 65 1009.5
20200530121006 12 45 0.0 1.6 0.00 0.00 0.00 64 1009.5
20200530120506 12 45 0.0 3.2 0.00 0.00 0.00 64 1009.5
20200530120006 12 22 0.0 1.6 0.00 0.00 0.00 63 1009.5
20200530115505 12 22 0.0 1.6 0.00 0.00 0.00 64 1009.5
20200530115006 12 23 1.6 4.8 0.00 0.00 0.00 63 1009.5
20200530114505 12 22 0.0 3.2 0.00 0.00 0.00 63 1009.5
20200530114006 12 22 1.6 3.2 0.00 0.00 0.00 64 1009.5
20200530113506 12 48 1.6 3.2 0.00 0.00 0.00 63 1009.5
20200530113006 12 27 1.6 4.8 0.00 0.00 0.00 62 1009.5
20200530112505 12 276 1.6 3.2 0.00 0.00 0.00 63 1009.5
20200530112006 12 90 1.6 3.2 0.00 0.00 0.00 62 1009.5
20200530111505 12 112 1.6 3.2 0.00 0.00 0.00 62 1009.5
20200530111006 12 4 3.2 4.8 0.00 0.00 0.00 63 1009.5
20200530110505 12 330 3.2 4.8 0.00 0.00 0.00 61 1009.5
20200530110006 12 12 1.6 3.2 0.00 0.00 0.00 61 1009.5
20200530105505 12 338 0.0 3.2 0.00 0.00 0.00 60 1008.5
20200530105006 12 37 1.6 4.8 0.00 0.00 0.00 61 1008.5
20200530104506 12 344 1.6 8.0 0.00 0.00 0.00 59 1008.5
20200530104006 12 358 1.6 3.2 0.00 0.00 0.00 60 1008.5
20200530103505 12 289 0.0 3.2 0.00 0.00 0.00 59 1008.5
20200530103006 13 22 1.6 3.2 0.00 0.00 0.00 58 1008.5
20200530102506 13 338 1.6 3.2 0.00 0.00 0.00 59 1008.5
20200530102006 13 90 1.6 3.2 0.00 0.00 0.00 57 1008.5
20200530101505 13 326 1.6 3.2 0.00 0.00 0.00 58 1008.5
20200530101006 13 345 1.6 8.0 0.00 0.00 0.00 56 1008.5
20200530100505 13 172 1.6 3.2 0.00 0.00 0.00 56 1008.5
20200530100005 13 90 1.6 3.2 0.00 0.00 0.00 55 1008.5
20200530095505 13 106 1.6 3.2 0.00 0.00 0.00 55 1008.5
20200530095005 13 22 1.6 8.0 0.00 0.00 0.00 56 1008.5
20200530094506 13 325 1.6 4.8 0.00 0.00 0.00 55 1008.5
20200530094006 13 10 3.2 8.0 0.00 0.00 0.00 55 1008.5
20200530093505 13 315 3.2 4.8 0.00 0.00 0.00 54 1008.5
20200530093006 13 340 1.6 3.2 0.00 0.00 0.00 54 1008.5
20200530092506 13 338 1.6 3.2 0.00 0.00 0.00 54 1008.5
20200530092006 13 340 3.2 3.2 0.00 0.00 0.00 54 1008.5
20200530091505 13 270 1.6 4.8 0.00 0.00 0.00 53 1008.5
20200530091006 13 346 1.6 3.2 0.00 0.00 0.00 53 1008.5
20200530090505 13 252 1.6 3.2 0.00 0.00 0.00 53 1008.5
20200530090005 13 353 3.2 8.0 0.00 0.00 0.00 53 1008.5
20200530085505 13 332 3.2 8.0 0.00 0.00 0.00 53 1008.5
20200530085006 13 338 1.6 4.8 0.00 0.00 0.00 52 1008.5
20200530084506 14 22 1.6 4.8 0.00 0.00 0.00 52 1008.5
20200530084006 14 323 1.6 3.2 0.00 0.00 0.00 52 1009.5
20200530083505 14 14 1.6 9.7 0.00 0.00 0.00 52 1009.5
20200530083005 14 338 3.2 4.8 0.00 0.00 0.00 52 1009.5
20200530082505 14 294 3.2 8.0 0.00 0.00 0.00 52 1009.5
20200530082005 14 338 1.6 4.8 0.00 0.00 0.00 52 1009.5
20200530081505 14 22 0.0 3.2 0.00 0.00 0.00 51 1009.5
20200530081006 14 338 1.6 4.8 0.00 0.00 0.00 51 1009.5
20200530080505 14 63 1.6 3.2 0.00 0.00 0.00 51 1009.5
20200530080005 14 359 1.6 3.2 0.00 0.00 0.00 51 1009.5
20200530075504 14 0 1.6 3.2 0.00 0.00 0.00 51 1009.5
20200530075006 15 25 1.6 3.2 0.00 0.00 0.00 51 1009.5
20200530074505 15 350 3.2 8.0 0.00 0.00 0.00 51 1009.5